createdAt,value
2019-03-31T00:00:42.377Z,12.21
2019-03-31T00:01:42.396Z,12.25
2019-03-31T00:02:42.418Z,12.25
2019-03-31T00:03:42.432Z,12.27
2019-03-31T00:04:42.456Z,12.18
2019-03-31T00:05:42.472Z,12.21
2019-03-31T00:06:42.490Z,12.10
2019-03-31T00:07:42.507Z,12.06
2019-03-31T00:08:42.528Z,12.10
2019-03-31T00:09:42.543Z,12.06
2019-03-31T00:10:42.561Z,11.91
2019-03-31T00:11:42.587Z,11.94
2019-03-31T00:12:42.600Z,11.86
2019-03-31T00:13:42.617Z,11.97
2019-03-31T00:14:42.635Z,11.99
2019-03-31T00:15:42.653Z,11.88
2019-03-31T00:16:42.673Z,11.84
2019-03-31T00:17:42.689Z,11.81
2019-03-31T00:18:42.709Z,11.77
2019-03-31T00:19:42.727Z,11.66
2019-03-31T00:20:42.745Z,11.59
2019-03-31T00:21:42.769Z,11.59
2019-03-31T00:22:42.781Z,11.57
2019-03-31T00:23:42.797Z,11.60
2019-03-31T00:24:42.815Z,11.68
2019-03-31T00:25:42.836Z,11.66
2019-03-31T00:26:42.860Z,11.60
2019-03-31T00:27:42.872Z,11.68
2019-03-31T00:28:42.894Z,11.65
2019-03-31T00:29:42.908Z,11.68
2019-03-31T00:30:42.927Z,11.65
2019-03-31T00:31:42.946Z,11.68
2019-03-31T00:32:42.960Z,11.66
2019-03-31T00:33:42.985Z,11.66
2019-03-31T00:34:42.999Z,11.70
2019-03-31T00:35:43.018Z,11.69
2019-03-31T00:36:43.035Z,11.69
2019-03-31T00:37:43.050Z,11.70
2019-03-31T00:38:43.071Z,11.63
2019-03-31T00:39:43.089Z,11.66
2019-03-31T00:40:43.109Z,11.66
2019-03-31T00:41:43.125Z,11.69
2019-03-31T00:42:43.142Z,11.65
2019-03-31T00:43:43.158Z,11.60
2019-03-31T00:44:43.180Z,11.63
2019-03-31T00:45:43.201Z,11.60
2019-03-31T00:46:43.226Z,11.70
2019-03-31T00:47:43.231Z,11.69
2019-03-31T00:48:43.249Z,11.68
2019-03-31T00:49:43.267Z,11.63
2019-03-31T00:50:43.292Z,11.60
2019-03-31T00:51:43.303Z,11.59
2019-03-31T00:52:43.321Z,11.52
2019-03-31T00:53:43.341Z,11.54
2019-03-31T00:54:43.358Z,11.55
2019-03-31T00:55:43.376Z,11.54
2019-03-31T00:56:43.394Z,11.50
2019-03-31T00:57:43.420Z,11.57
2019-03-31T00:58:43.432Z,11.65
2019-03-31T00:59:43.450Z,11.54
2019-03-31T01:00:43.472Z,11.68
2019-03-31T01:01:43.492Z,11.55
2019-03-31T01:02:43.502Z,11.66
2019-03-31T01:03:43.521Z,11.63
2019-03-31T01:04:43.546Z,11.69
2019-03-31T01:05:43.563Z,11.73
2019-03-31T01:06:43.574Z,11.77
2019-03-31T01:07:43.594Z,11.69
2019-03-31T01:08:43.611Z,11.78
2019-03-31T01:09:43.636Z,11.75
2019-03-31T01:10:43.648Z,11.72
2019-03-31T01:11:43.667Z,11.72
2019-03-31T01:12:43.690Z,11.70
2019-03-31T01:13:43.700Z,11.66
2019-03-31T01:14:43.720Z,11.69
2019-03-31T01:15:43.743Z,11.65
2019-03-31T01:16:43.757Z,11.72
2019-03-31T01:17:43.782Z,11.63
2019-03-31T01:18:43.793Z,11.59
2019-03-31T01:19:43.813Z,11.54
2019-03-31T01:20:43.828Z,11.57
2019-03-31T01:21:43.919Z,11.60
2019-03-31T01:22:43.874Z,11.50
2019-03-31T01:23:43.888Z,11.48
2019-03-31T01:24:43.903Z,11.51
2019-03-31T01:25:43.921Z,11.37
2019-03-31T01:26:43.947Z,11.47
2019-03-31T01:27:43.959Z,11.40
2019-03-31T01:28:43.971Z,11.43
2019-03-31T01:29:43.993Z,11.40
2019-03-31T01:30:44.041Z,11.41
2019-03-31T01:31:50.266Z,11.45
2019-03-31T01:32:44.043Z,11.35
2019-03-31T01:33:44.058Z,11.26
2019-03-31T01:34:44.078Z,11.37
2019-03-31T01:35:44.103Z,11.36
2019-03-31T01:36:44.139Z,11.35
2019-03-31T01:37:44.138Z,11.29
2019-03-31T01:38:44.150Z,11.35
2019-03-31T01:39:44.168Z,11.35
2019-03-31T01:40:44.193Z,11.27
2019-03-31T01:41:44.203Z,11.41
2019-03-31T01:42:44.222Z,11.30
2019-03-31T01:43:44.236Z,11.29
2019-03-31T01:44:44.256Z,11.36
2019-03-31T01:45:44.273Z,11.33
2019-03-31T01:46:44.296Z,11.27
2019-03-31T01:47:44.310Z,11.27
2019-03-31T01:48:44.328Z,11.27
2019-03-31T01:49:44.348Z,11.25
2019-03-31T01:50:44.362Z,11.19
2019-03-31T01:51:44.381Z,11.19
2019-03-31T01:52:44.396Z,11.23
2019-03-31T01:53:44.416Z,11.19
2019-03-31T01:54:44.434Z,11.15
2019-03-31T01:55:44.474Z,11.08
2019-03-31T01:56:44.915Z,11.07
2019-03-31T01:57:44.486Z,11.10
2019-03-31T01:58:44.512Z,10.97
2019-03-31T01:59:44.521Z,11.04
2019-03-31T02:00:44.547Z,11.05
2019-03-31T02:01:44.557Z,11.02
2019-03-31T02:02:44.577Z,10.99
2019-03-31T02:03:44.593Z,10.94
2019-03-31T02:04:44.612Z,11.07
2019-03-31T02:05:44.628Z,10.96
2019-03-31T02:06:44.654Z,10.93
2019-03-31T02:07:44.664Z,10.92
2019-03-31T02:08:44.684Z,10.94
2019-03-31T02:09:44.698Z,10.92
2019-03-31T02:10:44.737Z,10.93
2019-03-31T02:11:44.735Z,10.92
2019-03-31T02:12:44.784Z,10.92
2019-03-31T02:13:44.769Z,10.87
2019-03-31T02:14:44.789Z,10.86
2019-03-31T02:15:44.805Z,10.74
2019-03-31T02:16:44.821Z,10.87
2019-03-31T02:17:44.844Z,10.68
2019-03-31T02:18:44.856Z,10.74
2019-03-31T02:19:44.874Z,10.72
2019-03-31T02:20:44.893Z,10.71
2019-03-31T02:21:44.917Z,10.67
2019-03-31T02:22:44.929Z,10.69
2019-03-31T02:23:44.943Z,10.64
2019-03-31T02:24:44.964Z,10.69
2019-03-31T02:25:44.987Z,10.61
2019-03-31T02:26:44.997Z,10.67
2019-03-31T02:27:45.023Z,10.60
2019-03-31T02:28:45.031Z,10.63
2019-03-31T02:29:45.053Z,10.59
2019-03-31T02:30:45.076Z,10.61
2019-03-31T02:31:45.083Z,10.53
2019-03-31T02:32:45.105Z,10.49
2019-03-31T02:33:45.122Z,10.42
2019-03-31T02:34:45.140Z,10.49
2019-03-31T02:35:45.163Z,10.53
2019-03-31T02:36:45.171Z,10.46
2019-03-31T02:37:45.188Z,10.51
2019-03-31T02:38:45.208Z,10.49
2019-03-31T02:39:45.226Z,10.44
2019-03-31T02:40:45.242Z,10.51
2019-03-31T02:41:45.259Z,10.53
2019-03-31T02:42:45.277Z,10.51
2019-03-31T02:43:45.299Z,10.42
2019-03-31T02:44:45.320Z,10.40
2019-03-31T02:45:45.330Z,10.49
2019-03-31T02:46:45.347Z,10.51
2019-03-31T02:47:45.434Z,10.40
2019-03-31T02:48:45.380Z,10.38
2019-03-31T02:49:45.401Z,10.34
2019-03-31T02:50:45.424Z,10.34
2019-03-31T02:51:45.438Z,10.40
2019-03-31T02:52:45.452Z,10.41
2019-03-31T02:53:45.468Z,10.30
2019-03-31T02:54:45.486Z,10.33
2019-03-31T02:55:45.513Z,10.23
2019-03-31T02:56:45.520Z,10.19
2019-03-31T02:57:45.538Z,10.12
2019-03-31T02:58:45.562Z,10.10
2019-03-31T02:59:45.575Z,10.02
2019-03-31T03:00:45.696Z,9.97
2019-03-31T03:01:45.614Z,9.99
2019-03-31T03:02:45.627Z,9.98
2019-03-31T03:03:45.640Z,9.95
2019-03-31T03:04:45.776Z,10.10
2019-03-31T03:05:45.690Z,10.12
2019-03-31T03:06:45.703Z,10.04
2019-03-31T03:07:45.712Z,10.09
2019-03-31T03:08:45.735Z,10.12
2019-03-31T03:09:45.751Z,10.07
2019-03-31T03:10:45.763Z,10.13
2019-03-31T03:11:45.782Z,10.12
2019-03-31T03:12:45.796Z,9.92
2019-03-31T03:13:45.814Z,9.89
2019-03-31T03:14:45.837Z,9.86
2019-03-31T03:15:45.846Z,9.80
2019-03-31T03:16:45.866Z,9.79
2019-03-31T03:17:45.907Z,9.76
2019-03-31T03:18:45.906Z,9.77
2019-03-31T03:19:45.915Z,9.74
2019-03-31T03:20:45.935Z,9.77
2019-03-31T03:21:45.950Z,9.80
2019-03-31T03:22:45.974Z,9.84
2019-03-31T03:23:45.991Z,9.69
2019-03-31T03:24:46.003Z,9.82
2019-03-31T03:25:55.819Z,9.69
2019-03-31T03:26:46.040Z,9.80
2019-03-31T03:27:46.055Z,9.82
2019-03-31T03:28:46.072Z,9.72
2019-03-31T03:29:46.086Z,9.69
2019-03-31T03:30:46.280Z,9.69
2019-03-31T03:31:46.127Z,9.73
2019-03-31T03:33:12.251Z,9.68
2019-03-31T03:33:46.173Z,9.65
2019-03-31T03:34:46.211Z,9.64
2019-03-31T03:35:46.187Z,9.66
2019-03-31T03:36:46.205Z,9.56
2019-03-31T03:37:46.226Z,9.61
2019-03-31T03:38:46.248Z,9.55
2019-03-31T03:39:46.264Z,9.54
2019-03-31T03:40:46.278Z,9.48
2019-03-31T03:41:46.289Z,9.48
2019-03-31T03:42:46.307Z,9.48
2019-03-31T03:43:54.975Z,9.41
2019-03-31T03:44:46.342Z,9.50
2019-03-31T03:45:46.359Z,9.41
2019-03-31T03:46:46.376Z,9.34
2019-03-31T03:47:46.394Z,9.36
2019-03-31T03:48:46.528Z,9.31
2019-03-31T03:49:46.463Z,9.23
2019-03-31T03:50:46.467Z,9.28
2019-03-31T03:51:46.460Z,9.18
2019-03-31T03:52:46.476Z,9.25
2019-03-31T03:53:46.499Z,9.18
2019-03-31T03:54:46.512Z,9.11
2019-03-31T03:55:46.534Z,9.11
2019-03-31T03:56:46.543Z,9.13
2019-03-31T03:57:46.559Z,9.23
2019-03-31T03:58:46.578Z,9.13
2019-03-31T03:59:46.594Z,9.08
2019-03-31T04:00:46.611Z,9.11
2019-03-31T04:01:46.627Z,9.13
2019-03-31T04:02:46.645Z,9.14
2019-03-31T04:03:46.663Z,9.10
2019-03-31T04:04:46.676Z,9.04
2019-03-31T04:05:46.694Z,9.06
2019-03-31T04:06:46.710Z,8.97
2019-03-31T04:07:46.729Z,9.00
2019-03-31T04:08:46.762Z,8.95
2019-03-31T04:09:46.784Z,8.94
2019-03-31T04:10:46.786Z,8.88
2019-03-31T04:11:46.791Z,8.81
2019-03-31T04:12:46.811Z,8.84
2019-03-31T04:13:46.829Z,8.84
2019-03-31T04:14:46.845Z,8.82
2019-03-31T04:15:46.860Z,8.81
2019-03-31T04:16:46.889Z,8.84
2019-03-31T04:17:46.892Z,8.73
2019-03-31T04:18:46.914Z,8.71
2019-03-31T04:19:46.923Z,8.84
2019-03-31T04:20:46.995Z,8.78
2019-03-31T04:21:46.962Z,8.69
2019-03-31T04:22:46.985Z,8.73
2019-03-31T04:23:46.992Z,8.73
2019-03-31T04:24:47.007Z,8.76
2019-03-31T04:25:47.026Z,8.73
2019-03-31T04:26:47.044Z,8.78
2019-03-31T04:27:47.162Z,8.70
2019-03-31T04:28:47.075Z,8.69
2019-03-31T04:29:47.095Z,8.73
2019-03-31T04:30:47.121Z,8.76
2019-03-31T04:31:47.133Z,8.73
2019-03-31T04:32:47.142Z,8.73
2019-03-31T04:33:52.876Z,8.70
2019-03-31T04:34:47.174Z,8.71
2019-03-31T04:35:47.203Z,8.73
2019-03-31T04:36:47.204Z,8.69
2019-03-31T04:37:47.223Z,8.55
2019-03-31T04:38:47.244Z,8.61
2019-03-31T04:39:47.254Z,8.67
2019-03-31T04:40:47.274Z,8.53
2019-03-31T04:41:47.288Z,8.67
2019-03-31T04:42:47.302Z,8.66
2019-03-31T04:43:47.322Z,8.70
2019-03-31T04:44:47.335Z,8.70
2019-03-31T04:45:47.357Z,8.73
2019-03-31T04:46:47.368Z,8.66
2019-03-31T04:47:47.400Z,8.73
2019-03-31T04:48:47.406Z,8.69
2019-03-31T04:49:47.423Z,8.69
2019-03-31T04:50:47.442Z,8.69
2019-03-31T04:51:47.451Z,8.64
2019-03-31T04:52:47.475Z,8.64
2019-03-31T04:53:47.482Z,8.55
2019-03-31T04:54:47.502Z,8.69
2019-03-31T04:55:47.514Z,8.66
2019-03-31T04:56:47.532Z,8.70
2019-03-31T04:57:47.554Z,8.70
2019-03-31T04:58:47.571Z,8.63
2019-03-31T04:59:47.580Z,8.53
2019-03-31T05:00:47.599Z,8.64
2019-03-31T05:01:47.622Z,8.53
2019-03-31T05:02:47.640Z,8.66
2019-03-31T05:03:47.649Z,8.58
2019-03-31T05:04:47.663Z,8.56
2019-03-31T05:05:47.681Z,8.51
2019-03-31T05:06:47.698Z,8.51
2019-03-31T05:07:47.714Z,8.61
2019-03-31T05:08:47.730Z,8.56
2019-03-31T05:09:47.745Z,8.70
2019-03-31T05:10:47.762Z,8.58
2019-03-31T05:11:47.777Z,8.53
2019-03-31T05:12:47.795Z,8.51
2019-03-31T05:13:47.810Z,8.53
2019-03-31T05:14:47.826Z,8.51
2019-03-31T05:15:47.842Z,8.58
2019-03-31T05:16:47.859Z,8.52
2019-03-31T05:17:47.877Z,8.51
2019-03-31T05:18:47.892Z,8.48
2019-03-31T05:19:47.921Z,8.46
2019-03-31T05:20:47.924Z,8.38
2019-03-31T05:21:47.943Z,8.37
2019-03-31T05:22:47.966Z,8.36
2019-03-31T05:23:47.973Z,8.34
2019-03-31T05:24:47.995Z,8.24
2019-03-31T05:25:48.006Z,8.28
2019-03-31T05:26:48.080Z,8.19
2019-03-31T05:27:48.041Z,8.18
2019-03-31T05:28:48.061Z,8.19
2019-03-31T05:29:48.072Z,8.16
2019-03-31T05:30:48.087Z,8.19
2019-03-31T05:31:48.105Z,8.16
2019-03-31T05:32:48.122Z,8.20
2019-03-31T05:33:48.136Z,8.19
2019-03-31T05:34:48.154Z,8.12
2019-03-31T05:35:48.174Z,8.12
2019-03-31T05:36:48.183Z,8.08
2019-03-31T05:37:51.167Z,8.00
2019-03-31T05:38:48.223Z,8.00
2019-03-31T05:39:48.232Z,8.03
2019-03-31T05:40:48.252Z,8.01
2019-03-31T05:41:48.265Z,8.05
2019-03-31T05:42:48.282Z,7.98
2019-03-31T05:43:48.299Z,8.06
2019-03-31T05:44:48.324Z,8.03
2019-03-31T05:45:48.329Z,8.01
2019-03-31T05:46:48.345Z,7.94
2019-03-31T05:47:48.360Z,7.88
2019-03-31T05:48:48.386Z,7.97
2019-03-31T05:49:48.397Z,8.00
2019-03-31T05:50:48.410Z,7.98
2019-03-31T05:51:48.427Z,7.91
2019-03-31T05:52:48.443Z,7.83
2019-03-31T05:53:48.475Z,7.85
2019-03-31T05:54:48.476Z,7.80
2019-03-31T05:55:48.503Z,7.91
2019-03-31T05:56:48.513Z,7.94
2019-03-31T05:57:48.528Z,7.79
2019-03-31T05:58:48.540Z,7.80
2019-03-31T05:59:48.554Z,7.87
2019-03-31T06:00:48.570Z,7.79
2019-03-31T06:01:48.588Z,7.83
2019-03-31T06:02:48.604Z,7.80
2019-03-31T06:03:48.621Z,7.94
2019-03-31T06:04:48.642Z,8.06
2019-03-31T06:05:48.650Z,7.95
2019-03-31T06:06:48.666Z,7.95
2019-03-31T06:07:48.687Z,7.79
2019-03-31T06:08:48.698Z,7.76
2019-03-31T06:09:48.729Z,7.76
2019-03-31T06:10:48.738Z,7.91
2019-03-31T06:11:48.747Z,7.95
2019-03-31T06:12:48.765Z,7.95
2019-03-31T06:13:48.778Z,8.03
2019-03-31T06:14:48.794Z,7.97
2019-03-31T06:15:48.828Z,7.95
2019-03-31T06:16:48.825Z,7.98
2019-03-31T06:17:48.850Z,7.93
2019-03-31T06:18:48.860Z,8.00
2019-03-31T06:19:48.873Z,7.97
2019-03-31T06:20:48.898Z,7.94
2019-03-31T06:21:48.907Z,7.93
2019-03-31T06:22:48.922Z,7.93
2019-03-31T06:23:48.937Z,8.00
2019-03-31T06:24:48.959Z,8.00
2019-03-31T06:25:48.972Z,8.03
2019-03-31T06:26:48.991Z,7.98
2019-03-31T06:27:49.009Z,7.97
2019-03-31T06:28:49.020Z,8.08
2019-03-31T06:29:49.034Z,8.06
2019-03-31T06:30:49.053Z,8.08
2019-03-31T06:31:49.067Z,8.13
2019-03-31T06:32:49.084Z,8.23
2019-03-31T06:33:49.110Z,8.18
2019-03-31T06:34:49.114Z,8.13
2019-03-31T06:35:49.136Z,8.16
2019-03-31T06:36:49.147Z,8.20
2019-03-31T06:37:49.171Z,8.26
2019-03-31T06:38:49.185Z,8.31
2019-03-31T06:39:49.194Z,8.27
2019-03-31T06:40:49.211Z,8.33
2019-03-31T06:41:49.230Z,8.37
2019-03-31T06:42:49.244Z,8.41
2019-03-31T06:43:49.259Z,8.38
2019-03-31T06:44:49.277Z,8.37
2019-03-31T06:45:49.295Z,8.34
2019-03-31T06:46:49.318Z,8.38
2019-03-31T06:47:49.326Z,8.33
2019-03-31T06:48:49.343Z,8.41
2019-03-31T06:49:49.363Z,8.48
2019-03-31T06:50:49.378Z,8.52
2019-03-31T06:51:49.390Z,8.49
2019-03-31T06:52:49.408Z,8.49
2019-03-31T06:53:49.432Z,8.51
2019-03-31T06:54:49.448Z,8.53
2019-03-31T06:55:49.461Z,8.52
2019-03-31T06:56:49.474Z,8.58
2019-03-31T06:57:49.489Z,8.52
2019-03-31T06:58:49.504Z,8.61
2019-03-31T06:59:49.522Z,8.61
2019-03-31T07:00:49.541Z,8.53
2019-03-31T07:01:49.556Z,8.52
2019-03-31T07:02:49.570Z,8.49
2019-03-31T07:03:49.589Z,8.51
2019-03-31T07:05:00.517Z,8.36
2019-03-31T07:05:49.626Z,8.53
2019-03-31T07:06:49.636Z,8.53
2019-03-31T07:07:49.737Z,8.55
2019-03-31T07:08:49.670Z,8.66
2019-03-31T07:09:49.689Z,8.64
2019-03-31T07:10:49.704Z,8.76
2019-03-31T07:11:49.718Z,8.69
2019-03-31T07:12:49.734Z,8.78
2019-03-31T07:13:49.754Z,8.67
2019-03-31T07:14:49.767Z,8.73
2019-03-31T07:15:49.785Z,8.82
2019-03-31T07:16:49.808Z,8.82
2019-03-31T07:17:49.822Z,8.85
2019-03-31T07:18:49.834Z,8.78
2019-03-31T07:19:49.849Z,8.85
2019-03-31T07:20:49.869Z,8.85
2019-03-31T07:21:49.888Z,8.81
2019-03-31T07:22:49.902Z,8.94
2019-03-31T07:23:49.917Z,9.03
2019-03-31T07:24:49.932Z,8.81
2019-03-31T07:25:49.951Z,8.88
2019-03-31T07:26:49.967Z,9.06
2019-03-31T07:27:49.985Z,9.10
2019-03-31T07:28:50.007Z,9.14
2019-03-31T07:29:50.016Z,9.21
2019-03-31T07:30:50.033Z,9.29
2019-03-31T07:31:50.054Z,9.43
2019-03-31T07:32:50.075Z,9.44
2019-03-31T07:33:50.083Z,9.40
2019-03-31T07:34:50.105Z,9.61
2019-03-31T07:35:50.120Z,9.61
2019-03-31T07:36:50.135Z,9.56
2019-03-31T07:37:50.150Z,9.59
2019-03-31T07:38:50.397Z,9.50
2019-03-31T07:39:50.439Z,9.48
2019-03-31T07:40:50.432Z,9.41
2019-03-31T07:41:50.406Z,9.46
2019-03-31T07:42:51.280Z,9.59
2019-03-31T07:43:50.253Z,9.54
2019-03-31T07:44:50.272Z,9.64
2019-03-31T07:45:50.286Z,9.58
2019-03-31T07:46:50.306Z,9.69
2019-03-31T07:47:50.329Z,9.87
2019-03-31T07:48:50.338Z,9.76
2019-03-31T07:49:50.355Z,9.68
2019-03-31T07:50:50.378Z,9.58
2019-03-31T07:51:50.390Z,9.46
2019-03-31T07:52:50.420Z,9.39
2019-03-31T07:53:50.430Z,9.34
2019-03-31T07:54:50.445Z,9.43
2019-03-31T07:55:50.460Z,9.58
2019-03-31T07:56:50.480Z,9.73
2019-03-31T07:57:50.525Z,9.89
2019-03-31T07:58:50.543Z,9.89
2019-03-31T07:59:50.612Z,9.82
2019-03-31T08:00:50.552Z,9.76
2019-03-31T08:01:50.561Z,9.87
2019-03-31T08:02:50.579Z,9.91
2019-03-31T08:03:50.597Z,9.99
2019-03-31T08:04:50.614Z,9.89
2019-03-31T08:05:50.630Z,9.80
2019-03-31T08:06:50.652Z,9.84
2019-03-31T08:07:50.666Z,9.87
2019-03-31T08:08:53.524Z,9.91
2019-03-31T08:09:50.699Z,9.77
2019-03-31T08:10:50.719Z,9.69
2019-03-31T08:11:50.734Z,9.58
2019-03-31T08:12:50.754Z,9.56
2019-03-31T08:13:50.854Z,9.69
2019-03-31T08:14:50.792Z,9.79
2019-03-31T08:15:50.805Z,9.80
2019-03-31T08:16:50.828Z,9.92
2019-03-31T08:17:50.840Z,9.87
2019-03-31T08:18:50.864Z,9.91
2019-03-31T08:19:50.872Z,9.98
2019-03-31T08:20:50.891Z,9.92
2019-03-31T08:21:50.906Z,9.86
2019-03-31T08:22:50.924Z,9.97
2019-03-31T08:23:50.946Z,9.98
2019-03-31T08:24:50.994Z,10.02
2019-03-31T08:25:50.984Z,10.07
2019-03-31T08:26:51.008Z,10.01
2019-03-31T08:27:51.014Z,10.02
2019-03-31T08:28:51.033Z,9.92
2019-03-31T08:30:00.184Z,9.89
2019-03-31T08:30:51.065Z,9.91
2019-03-31T08:31:51.081Z,9.76
2019-03-31T08:32:51.098Z,9.80
2019-03-31T08:33:51.116Z,9.68
2019-03-31T08:34:51.137Z,9.66
2019-03-31T08:35:51.148Z,9.77
2019-03-31T08:36:51.167Z,9.86
2019-03-31T08:37:51.186Z,9.73
2019-03-31T08:38:51.204Z,9.82
2019-03-31T08:39:51.227Z,9.80
2019-03-31T08:40:51.238Z,9.76
2019-03-31T08:41:51.254Z,9.72
2019-03-31T08:42:51.272Z,9.86
2019-03-31T08:43:51.296Z,9.86
2019-03-31T08:44:51.306Z,9.87
2019-03-31T08:45:51.324Z,9.83
2019-03-31T08:46:51.341Z,9.68
2019-03-31T08:47:51.363Z,9.80
2019-03-31T08:48:51.373Z,9.87
2019-03-31T08:49:51.392Z,9.76
2019-03-31T08:50:51.414Z,9.91
2019-03-31T08:51:51.424Z,9.82
2019-03-31T08:52:51.443Z,9.66
2019-03-31T08:53:51.459Z,9.66
2019-03-31T08:54:51.478Z,9.82
2019-03-31T08:55:51.495Z,9.95
2019-03-31T08:56:51.512Z,9.86
2019-03-31T08:57:51.529Z,9.98
2019-03-31T08:58:51.555Z,10.09
2019-03-31T08:59:51.560Z,10.33
2019-03-31T09:00:51.578Z,10.42
2019-03-31T09:01:51.598Z,10.34
2019-03-31T09:02:51.615Z,10.54
2019-03-31T09:03:51.633Z,10.41
2019-03-31T09:04:51.648Z,10.42
2019-03-31T09:06:01.649Z,10.61
2019-03-31T09:06:51.692Z,10.49
2019-03-31T09:07:51.709Z,10.46
2019-03-31T09:08:51.717Z,10.54
2019-03-31T09:09:51.741Z,10.74
2019-03-31T09:10:51.753Z,10.72
2019-03-31T09:11:51.773Z,10.84
2019-03-31T09:12:51.791Z,10.69
2019-03-31T09:13:51.810Z,10.81
2019-03-31T09:14:51.825Z,10.64
2019-03-31T09:15:51.843Z,10.60
2019-03-31T09:16:51.859Z,10.64
2019-03-31T09:17:54.182Z,10.54
2019-03-31T09:18:51.897Z,10.53
2019-03-31T09:19:51.911Z,10.49
2019-03-31T09:20:51.932Z,10.33
2019-03-31T09:21:51.948Z,10.40
2019-03-31T09:22:51.966Z,10.31
2019-03-31T09:23:51.990Z,10.31
2019-03-31T09:24:52.005Z,10.38
2019-03-31T09:25:52.022Z,10.44
2019-03-31T09:26:52.037Z,10.46
2019-03-31T09:27:52.055Z,10.46
2019-03-31T09:28:52.071Z,10.64
2019-03-31T09:29:52.090Z,10.59
2019-03-31T09:30:52.202Z,10.71
2019-03-31T09:31:52.124Z,10.84
2019-03-31T09:32:52.142Z,10.89
2019-03-31T09:33:52.162Z,10.92
2019-03-31T09:34:52.179Z,10.92
2019-03-31T09:35:52.202Z,10.86
2019-03-31T09:36:52.214Z,10.86
2019-03-31T09:37:52.237Z,10.75
2019-03-31T09:38:52.252Z,10.61
2019-03-31T09:39:52.268Z,10.60
2019-03-31T09:40:52.286Z,10.61
2019-03-31T09:41:52.303Z,10.60
2019-03-31T09:42:52.320Z,10.68
2019-03-31T09:43:52.339Z,10.64
2019-03-31T09:44:52.357Z,10.68
2019-03-31T09:45:52.374Z,10.69
2019-03-31T09:46:52.390Z,10.63
2019-03-31T09:47:52.410Z,10.68
2019-03-31T09:48:52.428Z,10.63
2019-03-31T09:49:52.453Z,10.71
2019-03-31T09:50:52.461Z,10.72
2019-03-31T09:51:52.484Z,10.71
2019-03-31T09:52:52.507Z,10.76
2019-03-31T09:53:52.518Z,10.74
2019-03-31T09:54:52.533Z,10.71
2019-03-31T09:55:52.551Z,10.67
2019-03-31T09:56:52.567Z,10.63
2019-03-31T09:57:52.596Z,10.71
2019-03-31T09:58:52.612Z,10.86
2019-03-31T09:59:52.621Z,10.87
2019-03-31T10:00:52.642Z,10.99
2019-03-31T10:01:52.664Z,10.81
2019-03-31T10:02:52.676Z,10.93
2019-03-31T10:03:52.695Z,10.96
2019-03-31T10:04:52.717Z,10.90
2019-03-31T10:05:52.730Z,10.94
2019-03-31T10:06:52.745Z,10.94
2019-03-31T10:07:52.764Z,10.93
2019-03-31T10:08:52.780Z,11.05
2019-03-31T10:09:52.800Z,11.02
2019-03-31T10:10:52.818Z,10.94
2019-03-31T10:11:52.834Z,11.07
2019-03-31T10:12:52.854Z,11.10
2019-03-31T10:13:52.878Z,11.11
2019-03-31T10:14:54.392Z,11.04
2019-03-31T10:15:52.907Z,10.89
2019-03-31T10:16:52.923Z,10.96
2019-03-31T10:17:52.947Z,10.72
2019-03-31T10:18:52.962Z,10.60
2019-03-31T10:19:52.985Z,10.61
2019-03-31T10:20:52.996Z,10.56
2019-03-31T10:21:53.016Z,10.61
2019-03-31T10:22:53.035Z,10.59
2019-03-31T10:23:53.049Z,10.59
2019-03-31T10:24:53.072Z,10.64
2019-03-31T10:25:53.089Z,10.64
2019-03-31T10:26:53.113Z,10.68
2019-03-31T10:27:53.125Z,10.71
2019-03-31T10:28:53.140Z,10.68
2019-03-31T10:29:53.166Z,10.64
2019-03-31T10:30:53.174Z,10.75
2019-03-31T10:31:53.198Z,10.72
2019-03-31T10:32:53.209Z,10.82
2019-03-31T10:33:53.294Z,10.82
2019-03-31T10:34:53.245Z,10.86
2019-03-31T10:35:53.265Z,10.67
2019-03-31T10:36:53.281Z,10.78
2019-03-31T10:37:53.303Z,10.74
2019-03-31T10:38:53.321Z,10.64
2019-03-31T10:39:53.340Z,10.69
2019-03-31T10:40:53.357Z,10.79
2019-03-31T10:41:53.377Z,10.75
2019-03-31T10:42:53.390Z,10.84
2019-03-31T10:43:53.405Z,10.87
2019-03-31T10:44:53.439Z,10.97
2019-03-31T10:45:53.442Z,10.76
2019-03-31T10:46:53.460Z,10.78
2019-03-31T10:47:53.477Z,10.86
2019-03-31T10:48:53.504Z,10.87
2019-03-31T10:49:53.514Z,10.86
2019-03-31T10:50:53.532Z,10.89
2019-03-31T10:51:53.555Z,10.92
2019-03-31T10:52:53.571Z,10.94
2019-03-31T10:53:53.583Z,10.99
2019-03-31T10:54:53.614Z,11.11
2019-03-31T10:55:53.623Z,10.93
2019-03-31T10:56:53.642Z,10.86
2019-03-31T10:57:53.657Z,10.78
2019-03-31T10:58:53.676Z,10.86
2019-03-31T10:59:53.696Z,10.86
2019-03-31T11:00:53.709Z,10.96
2019-03-31T11:01:53.732Z,10.93
2019-03-31T11:02:53.744Z,10.89
2019-03-31T11:03:53.761Z,10.92
2019-03-31T11:04:53.782Z,11.00
2019-03-31T11:05:53.806Z,10.89
2019-03-31T11:06:59.140Z,10.93
2019-03-31T11:07:53.835Z,10.97
2019-03-31T11:08:53.851Z,11.12
2019-03-31T11:09:53.874Z,11.23
2019-03-31T11:10:53.896Z,11.11
2019-03-31T11:11:53.905Z,10.99
2019-03-31T11:12:53.929Z,11.08
2019-03-31T11:13:53.944Z,11.12
2019-03-31T11:14:53.959Z,11.14
2019-03-31T11:15:57.267Z,11.08
2019-03-31T11:16:53.994Z,10.93
2019-03-31T11:17:54.012Z,10.89
2019-03-31T11:18:54.032Z,10.72
2019-03-31T11:19:54.048Z,10.76
2019-03-31T11:20:54.067Z,10.64
2019-03-31T11:21:54.094Z,10.63
2019-03-31T11:22:54.104Z,10.53
2019-03-31T11:23:54.119Z,10.38
2019-03-31T11:24:54.142Z,10.34
2019-03-31T11:25:54.161Z,10.37
2019-03-31T11:26:54.178Z,10.31
2019-03-31T11:27:54.192Z,10.38
2019-03-31T11:28:54.207Z,10.35
2019-03-31T11:29:54.233Z,10.46
2019-03-31T11:30:54.245Z,10.51
2019-03-31T11:31:54.264Z,10.60
2019-03-31T11:32:54.277Z,10.60
2019-03-31T11:33:54.297Z,10.57
2019-03-31T11:34:54.316Z,10.42
2019-03-31T11:35:54.330Z,10.40
2019-03-31T11:36:54.351Z,10.38
2019-03-31T11:37:54.391Z,10.40
2019-03-31T11:38:54.384Z,10.34
2019-03-31T11:39:54.413Z,10.54
2019-03-31T11:40:54.421Z,10.63
2019-03-31T11:41:54.438Z,10.61
2019-03-31T11:42:54.455Z,10.61
2019-03-31T11:43:54.470Z,10.68
2019-03-31T11:44:54.488Z,10.71
2019-03-31T11:45:54.511Z,10.64
2019-03-31T11:46:54.525Z,10.74
2019-03-31T11:47:54.542Z,10.68
2019-03-31T11:48:54.561Z,10.69
2019-03-31T11:49:54.579Z,10.72
2019-03-31T11:50:54.594Z,10.81
2019-03-31T11:51:54.613Z,11.02
2019-03-31T11:52:54.630Z,11.15
2019-03-31T11:53:54.648Z,11.25
2019-03-31T11:54:54.673Z,11.08
2019-03-31T11:55:54.685Z,11.17
2019-03-31T11:56:54.700Z,11.12
2019-03-31T11:57:54.721Z,10.99
2019-03-31T11:58:54.736Z,11.12
2019-03-31T11:59:54.759Z,11.15
2019-03-31T12:00:54.772Z,11.26
2019-03-31T12:01:54.793Z,11.45
2019-03-31T12:02:54.810Z,11.68
2019-03-31T12:03:54.825Z,11.78
2019-03-31T12:04:54.844Z,11.83
2019-03-31T12:05:54.867Z,11.48
2019-03-31T12:06:54.883Z,11.22
2019-03-31T12:07:54.898Z,11.19
2019-03-31T12:08:54.919Z,11.23
2019-03-31T12:09:54.941Z,11.19
2019-03-31T12:10:54.959Z,11.19
2019-03-31T12:11:54.974Z,11.36
2019-03-31T12:12:54.991Z,11.51
2019-03-31T12:13:55.008Z,11.59
2019-03-31T12:15:00.727Z,11.50
2019-03-31T12:15:55.056Z,11.36
2019-03-31T12:16:55.074Z,11.26
2019-03-31T12:17:55.081Z,11.26
2019-03-31T12:18:55.102Z,11.25
2019-03-31T12:19:55.120Z,11.32
2019-03-31T12:20:55.136Z,11.36
2019-03-31T12:21:55.164Z,11.51
2019-03-31T12:22:55.177Z,11.70
2019-03-31T12:23:55.192Z,11.66
2019-03-31T12:24:55.213Z,11.75
2019-03-31T12:25:55.230Z,11.99
2019-03-31T12:26:55.257Z,11.99
2019-03-31T12:27:55.266Z,12.10
2019-03-31T12:28:55.360Z,12.36
2019-03-31T12:29:55.307Z,12.57
2019-03-31T12:30:55.320Z,12.40
2019-03-31T12:31:55.338Z,12.27
2019-03-31T12:32:55.360Z,12.09
2019-03-31T12:33:55.376Z,12.10
2019-03-31T12:34:55.396Z,12.42
2019-03-31T12:35:55.419Z,12.58
2019-03-31T12:36:55.442Z,12.68
2019-03-31T12:37:55.454Z,12.47
2019-03-31T12:38:55.475Z,12.37
2019-03-31T12:39:55.489Z,12.09
2019-03-31T12:40:55.509Z,12.13
2019-03-31T12:41:55.534Z,12.17
2019-03-31T12:42:55.552Z,12.28
2019-03-31T12:43:55.568Z,12.54
2019-03-31T12:44:55.585Z,12.35
2019-03-31T12:45:55.613Z,12.35
2019-03-31T12:46:56.362Z,12.45
2019-03-31T12:47:55.647Z,12.53
2019-03-31T12:48:55.663Z,12.55
2019-03-31T12:49:55.684Z,12.55
2019-03-31T12:50:55.708Z,12.54
2019-03-31T12:51:55.723Z,12.39
2019-03-31T12:52:55.746Z,12.40
2019-03-31T12:53:55.764Z,12.57
2019-03-31T12:54:55.777Z,12.42
2019-03-31T12:56:00.480Z,12.31
2019-03-31T12:56:55.816Z,12.31
2019-03-31T12:57:55.838Z,12.39
2019-03-31T12:58:55.855Z,12.17
2019-03-31T12:59:55.882Z,11.99
2019-03-31T13:00:55.897Z,11.73
2019-03-31T13:01:55.982Z,11.83
2019-03-31T13:02:55.937Z,11.78
2019-03-31T13:03:55.954Z,11.55